Time;durP1;ratioP1;P1;durP2;ratioP2;P2;SDS_P1;SDS_P2;PMS_P1;PMS_P2;Temp;Humidity;BMP_temperature;BMP_pressure;BME280_temperature;BME280_humidity;BME280_pressure;Samples;Min_cycle;Max_cycle;Signal;HPM_P1;HPM_P2
2021/01/28 00:01:04;;;;;;;18.95;11.52;;;;;;;;;;5038069;28;20022;-85
2021/01/28 00:03:30;;;;;;;22.65;12.18;;;;;;;;;;5037165;28;20034;-86
2021/01/28 00:05:56;;;;;;;26.25;12.70;;;;;;;;;;5037771;28;20429;-86
2021/01/28 00:08:22;;;;;;;27.40;12.68;;;;;;;;;;5037929;28;20029;-86
2021/01/28 00:10:48;;;;;;;23.02;12.45;;;;;;;;;;5036949;28;20120;-87
2021/01/28 00:13:14;;;;;;;28.42;14.43;;;;;;;;;;5037693;28;20029;-86
2021/01/28 00:15:40;;;;;;;41.58;19.38;;;;;;;;;;5037374;28;20068;-86
2021/01/28 00:18:07;;;;;;;36.95;17.63;;;;;;;;;;5037780;28;20032;-86
2021/01/28 00:20:35;;;;;;;34.08;16.98;;;;;;;;;;5037055;28;20029;-85
2021/01/28 00:23:02;;;;;;;31.60;15.05;;;;;;;;;;5037671;28;20024;-85
2021/01/28 00:25:28;;;;;;;26.17;13.95;;;;;;;;;;5020501;28;20032;-86
2021/01/28 00:27:54;;;;;;;31.77;15.65;;;;;;;;;;5037237;28;20076;-86
2021/01/28 00:30:25;;;;;;;25.23;13.98;;;;;;;;;;5037301;28;20021;-85
2021/01/28 00:32:53;;;;;;;24.55;13.90;;;;;;;;;;5037704;28;20024;-86
2021/01/28 00:35:32;;;;;;;24.33;14.10;;;;;;;;;;5037336;28;20347;-86
2021/01/28 00:38:01;;;;;;;21.75;12.07;;;;;;;;;;5037567;28;20108;-86
2021/01/28 00:40:30;;;;;;;24.60;13.27;;;;;;;;;;5037273;28;20026;-86
2021/01/28 00:46:13;;;;;;;29.08;16.13;;;;;;;;;;5032528;22;20050;-87
2021/01/28 00:57:09;;;;;;;25.60;12.68;;;;;;;;;;4997894;28;20053;-81
2021/01/28 00:59:36;;;;;;;24.88;12.43;;;;;;;;;;4997863;28;20405;-86
2021/01/28 01:04:50;;;;;;;25.70;13.25;;;;;;;;;;5019237;23;20050;-86
2021/01/28 01:10:02;;;;;;;26.35;12.32;;;;;;;;;;5024361;23;20093;-87
2021/01/28 01:12:32;;;;;;;27.90;12.85;;;;;;;;;;4997730;28;20031;-87
2021/01/28 01:14:58;;;;;;;19.58;12.57;;;;;;;;;;4978491;28;20046;-87
2021/01/28 01:17:24;;;;;;;19.73;11.90;;;;;;;;;;4978472;28;20078;-87
2021/01/28 01:22:35;;;;;;;19.48;10.98;;;;;;;;;;4978432;28;20066;-87
2021/01/28 01:25:01;;;;;;;23.52;11.43;;;;;;;;;;4977277;28;20022;-88
2021/01/28 01:27:27;;;;;;;22.63;11.32;;;;;;;;;;4977410;28;20332;-87
2021/01/28 01:29:53;;;;;;;20.27;11.27;;;;;;;;;;4978083;28;20034;-87
2021/01/28 01:32:19;;;;;;;23.02;11.75;;;;;;;;;;4978114;28;20031;-87
2021/01/28 01:34:46;;;;;;;20.45;10.82;;;;;;;;;;4978091;28;20338;-87
2021/01/28 01:37:14;;;;;;;20.05;11.00;;;;;;;;;;4976356;28;20067;-87
2021/01/28 01:39:44;;;;;;;20.45;11.00;;;;;;;;;;4978571;28;20321;-88
2021/01/28 01:42:13;;;;;;;20.50;12.10;;;;;;;;;;4980387;28;20023;-87
2021/01/28 01:44:40;;;;;;;20.10;11.77;;;;;;;;;;4981519;28;20023;-87
2021/01/28 01:50:17;;;;;;;19.10;10.98;;;;;;;;;;4981809;28;20046;-87
2021/01/28 01:52:43;;;;;;;;;;;;;;;;;;4981654;28;20022;-87
2021/01/28 01:55:11;;;;;;;20.45;11.10;;;;;;;;;;4981319;28;19913;-87
2021/01/28 02:00:23;;;;;;;20.70;10.35;;;;;;;;;;4981745;28;20066;-87
2021/01/28 02:08:38;;;;;;;16.27;9.60;;;;;;;;;;4961160;29;20072;-86
2021/01/28 02:11:05;;;;;;;18.35;10.13;;;;;;;;;;4976715;28;20391;-85
2021/01/28 02:47:10;;;;;;;22.73;11.75;;;;;;;;;;5098434;22;20493;-84
2021/01/28 03:12:20;;;;;;;21.48;11.90;;;;;;;;;;5058996;28;20075;-86
2021/01/28 03:14:47;;;;;;;21.17;11.07;;;;;;;;;;5058778;28;20018;-86
2021/01/28 03:17:15;;;;;;;20.98;11.93;;;;;;;;;;5058977;28;20025;-85
2021/01/28 03:19:45;;;;;;;26.40;12.80;;;;;;;;;;5059002;28;20071;-85
2021/01/28 03:24:59;;;;;;;23.58;12.90;;;;;;;;;;5058763;28;20437;-85
2021/01/28 03:27:25;;;;;;;26.08;15.27;;;;;;;;;;5058468;28;20106;-85
2021/01/28 03:32:56;;;;;;;23.13;12.38;;;;;;;;;;5058637;28;20040;-86
2021/01/28 03:35:24;;;;;;;20.50;12.60;;;;;;;;;;5040804;28;20045;-88
2021/01/28 03:37:50;;;;;;;20.88;13.15;;;;;;;;;;5056696;28;20045;-88
2021/01/28 03:40:22;;;;;;;21.35;11.88;;;;;;;;;;5058086;28;20419;-84
2021/01/28 03:45:53;;;;;;;21.40;11.23;;;;;;;;;;5087552;22;20140;-85
2021/01/28 03:48:19;;;;;;;20.25;11.75;;;;;;;;;;5058275;28;20422;-86
2021/01/28 04:05:28;;;;;;;17.42;9.95;;;;;;;;;;5087287;22;20350;-87
2021/01/28 04:07:55;;;;;;;19.02;10.55;;;;;;;;;;5057819;28;20033;-86
2021/01/28 04:10:23;;;;;;;20.15;10.18;;;;;;;;;;5023365;28;20040;-88
2021/01/28 04:33:24;;;;;;;24.17;11.52;;;;;;;;;;5057971;28;20112;-87
2021/01/28 04:35:50;;;;;;;23.33;12.50;;;;;;;;;;5039807;28;20071;-86
2021/01/28 04:38:16;;;;;;;22.65;12.23;;;;;;;;;;5057710;28;20334;-86
2021/01/28 04:40:47;;;;;;;24.30;11.85;;;;;;;;;;5057527;28;20108;-87
2021/01/28 04:43:18;;;;;;;21.98;11.95;;;;;;;;;;5057518;28;20021;-86
2021/01/28 04:45:44;;;;;;;24.92;13.30;;;;;;;;;;5057421;28;20092;-86
2021/01/28 04:48:11;;;;;;;21.02;12.70;;;;;;;;;;5057255;28;20024;-87
2021/01/28 04:50:39;;;;;;;31.02;16.67;;;;;;;;;;5057540;28;20025;-87
2021/01/28 04:53:09;;;;;;;25.48;14.38;;;;;;;;;;5039769;28;20029;-86
2021/01/28 04:55:35;;;;;;;28.80;16.70;;;;;;;;;;5057281;28;20346;-87
2021/01/28 04:58:01;;;;;;;25.35;15.00;;;;;;;;;;5056993;28;20029;-87
2021/01/28 05:03:34;;;;;;;33.95;17.17;;;;;;;;;;5057391;28;20051;-87
2021/01/28 05:06:01;;;;;;;27.30;13.35;;;;;;;;;;5057360;28;20021;-87
2021/01/28 05:08:27;;;;;;;24.35;13.02;;;;;;;;;;5057070;28;20418;-87
2021/01/28 05:10:55;;;;;;;26.02;15.25;;;;;;;;;;5057215;28;20029;-86
2021/01/28 05:13:25;;;;;;;30.33;15.88;;;;;;;;;;5056957;28;20399;-87
2021/01/28 05:15:51;;;;;;;30.77;16.33;;;;;;;;;;5058735;28;20029;-86
2021/01/28 05:18:37;;;;;;;31.00;16.67;;;;;;;;;;5043277;28;20021;-86
2021/01/28 05:21:08;;;;;;;24.27;14.02;;;;;;;;;;5060803;28;20045;-86
2021/01/28 05:23:36;;;;;;;37.08;21.42;;;;;;;;;;5060796;28;20021;-85
2021/01/28 05:26:22;;;;;;;34.75;18.65;;;;;;;;;;5060538;28;20036;-85
2021/01/28 05:32:14;;;;;;;36.85;17.88;;;;;;;;;;5060257;28;20571;-86
2021/01/28 05:34:40;;;;;;;33.65;17.73;;;;;;;;;;5060675;28;20040;-87
2021/01/28 05:37:07;;;;;;;31.40;18.05;;;;;;;;;;5060333;28;20136;-86
2021/01/28 05:39:35;;;;;;;34.50;18.88;;;;;;;;;;5060280;28;20033;-86
2021/01/28 05:42:08;;;;;;;30.38;17.70;;;;;;;;;;5042765;28;20032;-87
2021/01/28 05:44:38;;;;;;;39.88;19.35;;;;;;;;;;5042930;28;20111;-88
2021/01/28 05:53:13;;;;;;;55.95;23.00;;;;;;;;;;5060961;28;20086;-87
2021/01/28 05:55:39;;;;;;;61.55;22.98;;;;;;;;;;5060008;28;20316;-84
2021/01/28 06:01:34;;;;;;;58.70;25.05;;;;;;;;;;5060230;28;20036;-85
2021/01/28 06:04:00;;;;;;;50.50;24.27;;;;;;;;;;5042301;28;20025;-80
2021/01/28 06:06:38;;;;;;;47.50;23.20;;;;;;;;;;5059854;28;20124;-82
2021/01/28 06:09:23;;;;;;;46.45;24.60;;;;;;;;;;5059914;28;20323;-82
2021/01/28 06:11:57;;;;;;;46.53;24.95;;;;;;;;;;5059751;28;20025;-83
2021/01/28 06:14:40;;;;;;;48.92;25.35;;;;;;;;;;5059695;28;20307;-83
2021/01/28 06:17:05;;;;;;;;;;;;;;;;;;5059560;28;20036;-84
2021/01/28 06:19:42;;;;;;;53.67;27.52;;;;;;;;;;5058638;28;19905;-82
2021/01/28 06:22:18;;;;;;;58.67;30.75;;;;;;;;;;5059416;28;20032;-83
2021/01/28 06:24:50;;;;;;;89.93;39.17;;;;;;;;;;5059303;28;20021;-83
2021/01/28 06:27:35;;;;;;;94.20;41.95;;;;;;;;;;5040857;28;20032;-83
2021/01/28 06:30:07;;;;;;;98.63;42.58;;;;;;;;;;5059025;28;20403;-83
2021/01/28 06:32:52;;;;;;;108.38;47.90;;;;;;;;;;5059374;28;20057;-83
2021/01/28 06:35:30;;;;;;;118.95;54.97;;;;;;;;;;5041478;28;20086;-83
2021/01/28 06:38:17;;;;;;;178.23;85.85;;;;;;;;;;5041586;28;20082;-83
2021/01/28 06:40:46;;;;;;;146.02;68.80;;;;;;;;;;5059052;28;20024;-82
2021/01/28 06:43:16;;;;;;;100.18;45.42;;;;;;;;;;5059154;28;20025;-83
2021/01/28 06:45:57;;;;;;;80.65;37.03;;;;;;;;;;5059014;28;20051;-83
2021/01/28 06:48:25;;;;;;;71.85;33.97;;;;;;;;;;5058765;28;20029;-83
2021/01/28 06:50:55;;;;;;;92.22;42.13;;;;;;;;;;5058707;28;20112;-83
2021/01/28 06:53:32;;;;;;;78.65;39.40;;;;;;;;;;5041064;28;20044;-82
2021/01/28 06:56:16;;;;;;;72.03;36.28;;;;;;;;;;5040693;28;20326;-82
2021/01/28 06:58:55;;;;;;;78.53;34.42;;;;;;;;;;5041158;28;20116;-83
2021/01/28 07:01:41;;;;;;;74.93;34.15;;;;;;;;;;5058815;28;20434;-82
2021/01/28 07:04:07;;;;;;;69.47;31.83;;;;;;;;;;5058768;28;20028;-83
2021/01/28 07:06:40;;;;;;;61.83;32.00;;;;;;;;;;5058567;28;20029;-83
2021/01/28 07:09:14;;;;;;;67.25;34.03;;;;;;;;;;5058511;28;20028;-82
2021/01/28 07:11:41;;;;;;;87.68;42.35;;;;;;;;;;5058735;28;20041;-83
2021/01/28 07:14:08;;;;;;;120.72;57.35;;;;;;;;;;5040625;28;20060;-83
2021/01/28 07:16:36;;;;;;;115.47;53.92;;;;;;;;;;5058231;28;20025;-82
2021/01/28 07:19:05;;;;;;;101.72;48.13;;;;;;;;;;5058253;28;20318;-82
2021/01/28 07:21:40;;;;;;;96.47;48.67;;;;;;;;;;5058348;28;20021;-83
2021/01/28 07:24:08;;;;;;;87.78;44.92;;;;;;;;;;5058300;28;20032;-84
2021/01/28 07:26:48;;;;;;;93.20;46.72;;;;;;;;;;5040737;28;20032;-84
2021/01/28 07:29:34;;;;;;;89.50;43.67;;;;;;;;;;5040304;28;20039;-84
2021/01/28 07:32:01;;;;;;;79.60;39.92;;;;;;;;;;5057884;28;20352;-84
2021/01/28 07:34:27;;;;;;;72.78;37.53;;;;;;;;;;5058207;28;20029;-83
2021/01/28 07:36:55;;;;;;;70.63;37.40;;;;;;;;;;5040286;28;20028;-84
2021/01/28 07:39:31;;;;;;;72.10;36.40;;;;;;;;;;5057932;28;20032;-82
2021/01/28 07:41:58;;;;;;;110.70;47.45;;;;;;;;;;5057912;28;20017;-83
2021/01/28 07:44:27;;;;;;;132.57;58.83;;;;;;;;;;5057678;28;20021;-82
2021/01/28 07:46:54;;;;;;;123.60;54.47;;;;;;;;;;5040221;28;20438;-83
2021/01/28 07:49:24;;;;;;;99.45;49.42;;;;;;;;;;5057411;28;20036;-82
2021/01/28 07:52:13;;;;;;;88.38;45.15;;;;;;;;;;5046971;28;20111;-82
2021/01/28 07:54:46;;;;;;;75.28;40.15;;;;;;;;;;5043175;28;20077;-82
2021/01/28 07:57:32;;;;;;;64.10;35.65;;;;;;;;;;5046521;28;20051;-82
2021/01/28 08:00:06;;;;;;;57.95;31.25;;;;;;;;;;5020099;28;20025;-83
2021/01/28 08:02:33;;;;;;;55.63;30.77;;;;;;;;;;5020299;28;20119;-83
2021/01/28 08:05:06;;;;;;;62.55;31.88;;;;;;;;;;5037475;28;20104;-82
2021/01/28 08:07:34;;;;;;;68.28;36.08;;;;;;;;;;5037616;28;20036;-83
2021/01/28 08:10:19;;;;;;;60.35;31.80;;;;;;;;;;5037532;28;20025;-83
2021/01/28 08:12:54;;;;;;;58.42;33.25;;;;;;;;;;5037003;28;20044;-83
2021/01/28 08:15:22;;;;;;;63.70;35.28;;;;;;;;;;5018904;28;20119;-82
2021/01/28 08:17:59;;;;;;;59.10;33.33;;;;;;;;;;5037173;28;20049;-83
2021/01/28 08:20:27;;;;;;;58.55;32.47;;;;;;;;;;5037018;28;20025;-82
2021/01/28 08:22:55;;;;;;;52.53;30.80;;;;;;;;;;5036986;28;20029;-82
2021/01/28 08:25:22;;;;;;;58.00;31.95;;;;;;;;;;5037269;28;20148;-82
2021/01/28 08:27:49;;;;;;;61.03;32.50;;;;;;;;;;5036527;28;20022;-82
2021/01/28 08:30:17;;;;;;;87.22;44.25;;;;;;;;;;5037003;28;20385;-83
2021/01/28 08:32:45;;;;;;;81.15;43.28;;;;;;;;;;5036991;28;20052;-82
2021/01/28 08:35:22;;;;;;;63.45;35.70;;;;;;;;;;5037132;28;20040;-82
2021/01/28 08:37:48;;;;;;;61.47;32.75;;;;;;;;;;5037084;28;20297;-82
2021/01/28 08:40:17;;;;;;;55.30;30.45;;;;;;;;;;5037577;28;20024;-83
2021/01/28 08:42:43;;;;;;;58.60;32.03;;;;;;;;;;5056836;28;20021;-81
2021/01/28 08:45:24;;;;;;;50.75;30.15;;;;;;;;;;5056994;28;20286;-83
2021/01/28 08:47:58;;;;;;;58.08;32.50;;;;;;;;;;5056777;28;20045;-81
2021/01/28 08:50:27;;;;;;;99.70;44.97;;;;;;;;;;5057743;28;20033;-82
2021/01/28 08:53:04;;;;;;;81.10;39.80;;;;;;;;;;5061027;28;20044;-82
2021/01/28 08:55:34;;;;;;;173.18;64.75;;;;;;;;;;5060967;28;20071;-82
2021/01/28 08:58:28;;;;;;;131.25;51.10;;;;;;;;;;5060698;28;20058;-83
2021/01/28 09:01:01;;;;;;;83.25;41.05;;;;;;;;;;5056381;28;20033;-82
2021/01/28 09:03:32;;;;;;;80.80;36.67;;;;;;;;;;5060735;28;20036;-83
2021/01/28 09:06:02;;;;;;;123.95;50.58;;;;;;;;;;5060763;28;20048;-82
2021/01/28 09:08:36;;;;;;;144.90;55.40;;;;;;;;;;5060472;28;20407;-82
2021/01/28 09:11:17;;;;;;;69.90;34.90;;;;;;;;;;5060280;28;20033;-82
2021/01/28 09:14:02;;;;;;;80.85;38.97;;;;;;;;;;5042724;28;20032;-82
2021/01/28 09:16:28;;;;;;;87.45;39.35;;;;;;;;;;5060302;28;20029;-83
2021/01/28 09:18:54;;;;;;;123.97;53.80;;;;;;;;;;5060359;28;20092;-82
2021/01/28 09:21:22;;;;;;;111.70;47.55;;;;;;;;;;5060333;28;20081;-81
2021/01/28 09:23:54;;;;;;;120.75;53.38;;;;;;;;;;5059964;28;20028;-83
2021/01/28 09:26:22;;;;;;;82.25;41.63;;;;;;;;;;5060251;28;20029;-82
2021/01/28 09:28:48;;;;;;;77.60;38.75;;;;;;;;;;5042110;28;20446;-82
2021/01/28 09:31:25;;;;;;;131.48;56.22;;;;;;;;;;5060021;28;20434;-82
2021/01/28 09:33:51;;;;;;;84.78;39.95;;;;;;;;;;5060245;28;20025;-83
2021/01/28 09:36:23;;;;;;;57.28;30.20;;;;;;;;;;5059511;28;20033;-83
2021/01/28 09:39:01;;;;;;;79.05;37.90;;;;;;;;;;5060129;28;20068;-84
2021/01/28 09:41:28;;;;;;;82.32;38.13;;;;;;;;;;5049381;28;20026;-83
2021/01/28 09:43:55;;;;;;;95.18;42.50;;;;;;;;;;5039887;28;20412;-82
2021/01/28 09:46:21;;;;;;;79.38;37.90;;;;;;;;;;5039925;28;20056;-83
2021/01/28 09:48:48;;;;;;;91.18;38.92;;;;;;;;;;5040062;28;20036;-83
2021/01/28 09:51:17;;;;;;;125.03;47.63;;;;;;;;;;5039873;28;20407;-82
2021/01/28 09:54:02;;;;;;;122.57;50.22;;;;;;;;;;5039930;28;20068;-83
2021/01/28 09:56:29;;;;;;;183.80;81.25;;;;;;;;;;5039738;28;20119;-82
2021/01/28 09:58:55;;;;;;;181.93;75.72;;;;;;;;;;5022146;28;20347;-82
2021/01/28 10:01:21;;;;;;;73.82;37.38;;;;;;;;;;5038611;28;20030;-83
2021/01/28 10:03:47;;;;;;;64.00;35.60;;;;;;;;;;5038823;28;20029;-82
2021/01/28 10:06:14;;;;;;;77.47;40.15;;;;;;;;;;5039511;28;20032;-81
2021/01/28 10:08:40;;;;;;;49.17;27.63;;;;;;;;;;5039529;28;20029;-82
2021/01/28 10:11:07;;;;;;;78.65;43.92;;;;;;;;;;5039040;28;20025;-82
2021/01/28 10:13:33;;;;;;;162.73;75.75;;;;;;;;;;5021468;28;20084;-82
2021/01/28 10:15:59;;;;;;;107.47;54.50;;;;;;;;;;5038969;28;20112;-81
2021/01/28 10:18:25;;;;;;;125.90;58.22;;;;;;;;;;5039111;28;20032;-82
2021/01/28 10:20:51;;;;;;;127.30;57.60;;;;;;;;;;5039427;28;20041;-82
2021/01/28 10:23:17;;;;;;;106.70;49.97;;;;;;;;;;5038974;28;20075;-82
2021/01/28 10:25:43;;;;;;;116.82;51.78;;;;;;;;;;5039098;28;20032;-82
2021/01/28 10:28:09;;;;;;;88.28;41.90;;;;;;;;;;5020949;28;20030;-82
2021/01/28 10:30:36;;;;;;;93.82;42.85;;;;;;;;;;5017511;28;20056;-82
2021/01/28 10:33:02;;;;;;;98.75;45.65;;;;;;;;;;5019238;28;20412;-82
2021/01/28 10:35:30;;;;;;;167.07;69.20;;;;;;;;;;5017769;28;20040;-82
2021/01/28 10:37:56;;;;;;;123.47;54.10;;;;;;;;;;5018934;28;20032;-82
2021/01/28 10:40:23;;;;;;;159.93;70.30;;;;;;;;;;5018843;28;20045;-81
2021/01/28 10:42:53;;;;;;;163.63;67.07;;;;;;;;;;5019088;28;20321;-81
2021/01/28 10:45:22;;;;;;;173.45;73.95;;;;;;;;;;5019006;28;20026;-81
2021/01/28 10:47:48;;;;;;;620.70;267.63;;;;;;;;;;5017659;28;20425;-82
2021/01/28 10:50:15;;;;;;;148.75;64.75;;;;;;;;;;5018822;28;20040;-81
2021/01/28 10:52:41;;;;;;;130.88;62.13;;;;;;;;;;5018785;28;20479;-82
2021/01/28 10:55:08;;;;;;;111.20;50.42;;;;;;;;;;5018691;28;20030;-82
2021/01/28 10:57:34;;;;;;;113.88;51.35;;;;;;;;;;5018666;28;20317;-83
2021/01/28 11:00:00;;;;;;;107.28;49.55;;;;;;;;;;5018587;28;20049;-82
2021/01/28 11:02:26;;;;;;;317.33;137.55;;;;;;;;;;5018455;28;20026;-82
2021/01/28 11:04:52;;;;;;;473.50;206.65;;;;;;;;;;5018512;28;20125;-82
2021/01/28 11:07:18;;;;;;;535.92;247.93;;;;;;;;;;5018769;28;20026;-81
2021/01/28 11:09:45;;;;;;;164.10;76.70;;;;;;;;;;5018664;28;20034;-82
2021/01/28 11:12:11;;;;;;;251.70;115.38;;;;;;;;;;5018346;28;20026;-82
2021/01/28 11:14:37;;;;;;;256.77;119.57;;;;;;;;;;4999854;28;20060;-81
2021/01/28 11:17:03;;;;;;;148.57;75.63;;;;;;;;;;4999774;28;20033;-81
2021/01/28 11:19:29;;;;;;;601.53;295.27;;;;;;;;;;5018420;28;20026;-81
2021/01/28 11:21:56;;;;;;;323.63;145.57;;;;;;;;;;5017817;28;20026;-81
2021/01/28 11:24:22;;;;;;;321.88;140.93;;;;;;;;;;5017998;28;20453;-81
2021/01/28 11:26:48;;;;;;;258.13;122.00;;;;;;;;;;5018054;28;20404;-80
2021/01/28 11:29:14;;;;;;;234.10;112.43;;;;;;;;;;5018149;28;20030;-81
2021/01/28 11:31:40;;;;;;;287.48;145.98;;;;;;;;;;5000211;28;20057;-81
2021/01/28 11:34:06;;;;;;;182.82;95.82;;;;;;;;;;5018009;28;20033;-81
2021/01/28 11:36:32;;;;;;;141.07;70.20;;;;;;;;;;5017725;28;20050;-82
2021/01/28 11:38:58;;;;;;;144.88;73.63;;;;;;;;;;5018111;28;20041;-82
2021/01/28 11:41:25;;;;;;;81.57;44.22;;;;;;;;;;5008101;28;20018;-82
2021/01/28 11:43:51;;;;;;;250.18;108.47;;;;;;;;;;4996725;28;20031;-81
2021/01/28 11:46:17;;;;;;;262.98;109.88;;;;;;;;;;4998096;28;20042;-81
2021/01/28 11:48:43;;;;;;;438.13;168.57;;;;;;;;;;4997906;28;20024;-81
2021/01/28 11:51:09;;;;;;;405.92;159.82;;;;;;;;;;4997917;28;20330;-81
2021/01/28 11:53:35;;;;;;;172.95;69.85;;;;;;;;;;4997999;28;20026;-81
2021/01/28 11:56:01;;;;;;;176.95;74.32;;;;;;;;;;4998130;28;20321;-81
2021/01/28 11:58:27;;;;;;;598.10;242.23;;;;;;;;;;4997782;28;20054;-80
2021/01/28 12:00:53;;;;;;;385.90;146.48;;;;;;;;;;4997979;28;20035;-82
2021/01/28 12:03:19;;;;;;;500.98;207.75;;;;;;;;;;4997649;28;20028;-81
2021/01/28 12:05:46;;;;;;;213.15;87.68;;;;;;;;;;4997754;28;20361;-81
2021/01/28 12:08:12;;;;;;;153.52;63.08;;;;;;;;;;4997624;28;20022;-82
2021/01/28 12:10:38;;;;;;;465.48;177.50;;;;;;;;;;4997510;28;20023;-81
2021/01/28 12:13:04;;;;;;;1133.85;472.95;;;;;;;;;;4997664;28;20030;-80
2021/01/28 12:15:30;;;;;;;301.67;110.20;;;;;;;;;;4997614;28;20019;-80
2021/01/28 12:17:57;;;;;;;239.65;85.95;;;;;;;;;;4997509;28;20096;-81
2021/01/28 12:20:30;;;;;;;228.80;86.50;;;;;;;;;;4997569;28;20026;-81
2021/01/28 12:22:56;;;;;;;706.95;302.60;;;;;;;;;;4997781;28;20368;-82
2021/01/28 12:25:22;;;;;;;281.90;110.75;;;;;;;;;;4997046;28;20058;-81
2021/01/28 12:27:48;;;;;;;704.05;296.67;;;;;;;;;;4997522;28;20121;-81
2021/01/28 12:30:16;;;;;;;147.93;59.67;;;;;;;;;;4983819;28;20112;-82
2021/01/28 12:32:42;;;;;;;863.13;391.90;;;;;;;;;;5017217;28;20022;-82
2021/01/28 12:35:09;;;;;;;422.60;167.18;;;;;;;;;;5017057;28;20038;-82
2021/01/28 12:37:36;;;;;;;543.53;246.82;;;;;;;;;;5017237;28;20084;-81
2021/01/28 12:40:03;;;;;;;1001.17;457.67;;;;;;;;;;4999581;28;20026;-81
2021/01/28 12:42:29;;;;;;;366.98;141.25;;;;;;;;;;5034705;28;20045;-81
2021/01/28 12:44:55;;;;;;;365.50;144.38;;;;;;;;;;5036781;28;20049;-81
2021/01/28 12:47:21;;;;;;;252.45;87.18;;;;;;;;;;5036730;28;20354;-81
2021/01/28 12:49:47;;;;;;;339.48;123.95;;;;;;;;;;5018987;28;20040;-81
2021/01/28 12:52:14;;;;;;;526.92;227.35;;;;;;;;;;5036406;28;20068;-80
2021/01/28 12:54:40;;;;;;;401.90;161.23;;;;;;;;;;5036639;28;20025;-81
2021/01/28 12:57:06;;;;;;;584.15;260.70;;;;;;;;;;5019096;28;20036;-81
2021/01/28 12:59:32;;;;;;;724.35;345.67;;;;;;;;;;5036579;28;20029;-81
2021/01/28 13:01:58;;;;;;;136.85;60.15;;;;;;;;;;5036504;28;20029;-80
2021/01/28 13:04:25;;;;;;;166.20;71.53;;;;;;;;;;5036496;28;20017;-80
2021/01/28 13:06:51;;;;;;;699.83;360.45;;;;;;;;;;5036174;28;20469;-81
2021/01/28 13:09:17;;;;;;;518.53;246.88;;;;;;;;;;5018772;28;20059;-81
2021/01/28 13:11:43;;;;;;;526.78;259.48;;;;;;;;;;5035994;28;20029;-81
2021/01/28 13:14:09;;;;;;;233.35;94.40;;;;;;;;;;5036433;28;20108;-81
2021/01/28 13:16:35;;;;;;;420.60;201.25;;;;;;;;;;5036155;28;20030;-81
2021/01/28 13:19:01;;;;;;;394.95;157.48;;;;;;;;;;5036110;28;20080;-81
2021/01/28 13:21:28;;;;;;;1115.68;461.10;;;;;;;;;;5036447;28;20024;-80
2021/01/28 13:23:54;;;;;;;456.50;161.15;;;;;;;;;;5036544;28;20022;-81
2021/01/28 13:26:20;;;;;;;551.60;213.73;;;;;;;;;;5036571;28;20030;-81
2021/01/28 13:28:47;;;;;;;678.28;272.38;;;;;;;;;;5018437;28;20037;-80
2021/01/28 13:31:13;;;;;;;726.78;284.17;;;;;;;;;;5017467;28;20057;-81
2021/01/28 13:33:39;;;;;;;550.33;200.02;;;;;;;;;;5036300;28;20029;-81
2021/01/28 13:36:06;;;;;;;368.80;125.22;;;;;;;;;;5036508;28;22065;-81
2021/01/28 13:38:32;;;;;;;351.95;118.95;;;;;;;;;;5039639;28;20025;-81
2021/01/28 13:40:58;;;;;;;636.70;243.18;;;;;;;;;;5016114;28;20037;-81
2021/01/28 13:43:24;;;;;;;400.70;138.07;;;;;;;;;;5019763;28;20022;-81
2021/01/28 13:45:50;;;;;;;1512.88;559.10;;;;;;;;;;5002567;28;20076;-81
2021/01/28 13:48:17;;;;;;;215.77;77.70;;;;;;;;;;5019790;28;20128;-81
2021/01/28 13:50:43;;;;;;;1222.35;463.60;;;;;;;;;;5020030;28;20032;-81
2021/01/28 13:53:10;;;;;;;492.33;168.82;;;;;;;;;;5002781;28;20137;-88
2021/01/28 13:55:36;;;;;;;339.10;123.50;;;;;;;;;;5002843;28;20022;-83
2021/01/28 13:58:03;;;;;;;527.75;203.00;;;;;;;;;;5020175;28;20034;-88
2021/01/28 14:00:29;;;;;;;416.67;145.98;;;;;;;;;;5020279;28;20101;-88
2021/01/28 14:02:55;;;;;;;686.83;264.48;;;;;;;;;;5003172;28;20022;-88
2021/01/28 14:05:22;;;;;;;495.42;179.85;;;;;;;;;;5020126;28;20439;-87
2021/01/28 14:07:48;;;;;;;446.63;164.68;;;;;;;;;;5020094;28;20037;-88
2021/01/28 14:10:16;;;;;;;598.08;252.35;;;;;;;;;;5002960;28;20044;-88
2021/01/28 14:12:42;;;;;;;341.17;134.40;;;;;;;;;;5019717;28;20030;-87
2021/01/28 14:15:10;;;;;;;377.25;156.73;;;;;;;;;;5019989;28;20037;-88
2021/01/28 14:17:36;;;;;;;202.80;85.30;;;;;;;;;;5002664;28;20076;-87
2021/01/28 14:20:03;;;;;;;180.18;75.00;;;;;;;;;;5002539;28;20540;-87
2021/01/28 14:22:30;;;;;;;232.95;96.97;;;;;;;;;;5019748;28;20133;-87
2021/01/28 14:24:56;;;;;;;204.10;83.32;;;;;;;;;;5002129;28;20364;-88
2021/01/28 14:27:22;;;;;;;393.10;160.05;;;;;;;;;;5020212;28;20026;-88
2021/01/28 14:29:48;;;;;;;181.52;81.20;;;;;;;;;;5002487;28;20026;-86
2021/01/28 14:32:14;;;;;;;306.38;140.85;;;;;;;;;;5019882;28;20041;-87
2021/01/28 14:34:40;;;;;;;140.00;65.65;;;;;;;;;;5001997;28;20038;-87
2021/01/28 14:37:06;;;;;;;107.88;52.22;;;;;;;;;;5002451;28;20104;-87
2021/01/28 14:39:33;;;;;;;100.78;50.30;;;;;;;;;;5001937;28;20041;-87
2021/01/28 14:41:59;;;;;;;71.40;38.15;;;;;;;;;;5033139;28;20067;-87
2021/01/28 14:44:25;;;;;;;82.70;39.97;;;;;;;;;;5039149;28;20109;-86
2021/01/28 14:46:51;;;;;;;75.00;37.17;;;;;;;;;;5021511;28;20037;-87
2021/01/28 14:49:17;;;;;;;59.75;32.30;;;;;;;;;;5038871;28;20026;-86
2021/01/28 14:51:43;;;;;;;89.20;43.95;;;;;;;;;;5021690;28;20068;-86
2021/01/28 14:54:10;;;;;;;91.45;43.05;;;;;;;;;;5021677;28;20029;-86
2021/01/28 14:56:37;;;;;;;298.17;131.93;;;;;;;;;;5038576;28;20099;-83
2021/01/28 14:59:03;;;;;;;573.65;272.40;;;;;;;;;;5039154;28;20026;-86
2021/01/28 15:01:32;;;;;;;564.80;262.45;;;;;;;;;;5021103;28;20119;-86
2021/01/28 15:03:59;;;;;;;251.00;110.30;;;;;;;;;;5021237;28;20034;-86
2021/01/28 15:06:26;;;;;;;454.02;191.32;;;;;;;;;;5038561;28;20056;-86
2021/01/28 15:08:52;;;;;;;167.68;77.43;;;;;;;;;;5021253;28;20037;-86
2021/01/28 15:11:19;;;;;;;580.42;248.23;;;;;;;;;;5030817;28;20026;-87
2021/01/28 15:13:45;;;;;;;710.95;304.25;;;;;;;;;;5018624;28;20030;-86
2021/01/28 15:16:11;;;;;;;903.25;376.40;;;;;;;;;;5000782;28;20033;-86
2021/01/28 15:18:37;;;;;;;868.25;364.42;;;;;;;;;;5001548;28;20026;-85
2021/01/28 15:21:03;;;;;;;788.60;333.98;;;;;;;;;;5001760;28;20029;-86
2021/01/28 15:23:29;;;;;;;762.83;334.90;;;;;;;;;;5019011;28;20052;-86
2021/01/28 15:25:55;;;;;;;592.83;264.20;;;;;;;;;;5018589;28;20416;-86
2021/01/28 15:28:21;;;;;;;1072.03;475.40;;;;;;;;;;5018913;28;20316;-85
2021/01/28 15:30:47;;;;;;;723.28;328.70;;;;;;;;;;5001041;28;20507;-86
2021/01/28 15:33:13;;;;;;;677.08;296.92;;;;;;;;;;5017625;28;20062;-85
2021/01/28 15:35:39;;;;;;;582.85;257.48;;;;;;;;;;5018684;28;20106;-86
2021/01/28 15:38:06;;;;;;;662.35;301.25;;;;;;;;;;5018607;28;20058;-85
2021/01/28 15:40:32;;;;;;;678.15;304.38;;;;;;;;;;5018224;28;20313;-85
2021/01/28 15:42:58;;;;;;;1025.63;483.50;;;;;;;;;;5018661;28;20080;-86
2021/01/28 15:48:37;;;;;;;501.88;218.35;;;;;;;;;;5018644;28;20114;-88
2021/01/28 15:51:04;;;;;;;894.13;397.33;;;;;;;;;;5018629;28;20379;-88
2021/01/28 15:53:30;;;;;;;969.50;439.40;;;;;;;;;;5018494;28;20025;-88
2021/01/28 15:55:56;;;;;;;545.55;227.07;;;;;;;;;;5018712;28;20029;-88
2021/01/28 15:58:22;;;;;;;442.75;167.32;;;;;;;;;;5018479;28;20369;-84
2021/01/28 16:00:49;;;;;;;521.53;214.73;;;;;;;;;;5017203;28;20325;-82
2021/01/28 16:03:16;;;;;;;399.05;160.93;;;;;;;;;;4999850;28;20030;-82
2021/01/28 16:05:43;;;;;;;211.40;94.30;;;;;;;;;;5017618;28;20105;-83
2021/01/28 16:08:10;;;;;;;288.02;107.32;;;;;;;;;;5017354;28;20105;-83
2021/01/28 16:10:36;;;;;;;206.25;75.97;;;;;;;;;;5017323;28;20037;-75
2021/01/28 16:13:02;;;;;;;114.85;47.03;;;;;;;;;;5017232;28;20026;-79
2021/01/28 16:15:28;;;;;;;367.10;116.88;;;;;;;;;;5019275;28;20022;-79
2021/01/28 16:17:54;;;;;;;332.73;97.40;;;;;;;;;;5025687;28;20020;-79
2021/01/28 16:20:20;;;;;;;359.95;119.50;;;;;;;;;;5030936;28;20025;-79
2021/01/28 16:22:47;;;;;;;268.55;102.70;;;;;;;;;;5037036;28;20025;-79
2021/01/28 16:25:14;;;;;;;153.82;64.60;;;;;;;;;;5019047;28;20037;-79
2021/01/28 16:27:41;;;;;;;99.03;46.05;;;;;;;;;;5037030;28;20036;-79
2021/01/28 16:30:08;;;;;;;128.82;57.53;;;;;;;;;;5018728;28;20458;-79
2021/01/28 16:32:53;;;;;;;121.40;55.53;;;;;;;;;;5019209;28;20033;-80
2021/01/28 16:35:21;;;;;;;103.65;48.13;;;;;;;;;;5036802;28;20033;-79
2021/01/28 16:37:48;;;;;;;118.57;54.45;;;;;;;;;;5036784;28;20029;-80
2021/01/28 16:40:14;;;;;;;71.47;36.70;;;;;;;;;;5018868;28;20466;-80
2021/01/28 16:42:40;;;;;;;77.22;41.03;;;;;;;;;;5017882;28;20085;-80
2021/01/28 16:45:07;;;;;;;107.28;50.25;;;;;;;;;;4999681;28;20053;-79
2021/01/28 16:47:33;;;;;;;129.35;60.15;;;;;;;;;;5018848;28;20033;-79